CST,Max TemperatureF,Mean TemperatureF,Min TemperatureF,Max Dew PointF,MeanDew PointF,Min DewpointF,Max Humidity, Mean Humidity, Min Humidity, Max Sea Level PressureIn, Mean Sea Level PressureIn, Min Sea Level PressureIn, Max VisibilityMiles, Mean VisibilityMiles, Min VisibilityMiles, Max Wind SpeedMPH, Mean Wind SpeedMPH, Max Gust SpeedMPH,PrecipitationIn, CloudCover, Events, WindDirDegrees
2013-11-1,68,59,50,57,48,41,100,76,37,29.86,29.79,29.70,10,10,9,18,9,26,0.00,1,,251
2013-11-2,57,48,39,43,40,37,93,73,54,30.20,30.01,29.86,10,10,9,16,7,22,0.00,2,,298
2013-11-3,57,46,35,41,35,32,100,72,38,30.33,30.25,30.19,10,10,3,8,2,16,0.00,0,,98
2013-11-4,59,49,39,45,40,36,87,66,48,30.32,30.27,30.23,10,10,10,16,5,24,0.00,1,,164
2013-11-5,66,58,50,48,43,39,72,58,43,30.35,30.26,30.16,10,10,10,14,5,23,0.00,4,,160
2013-11-6,59,50,41,57,49,39,100,84,55,30.23,30.11,30.03,10,8,1,20,10,26,0.37,5,,208
2013-11-7,51,43,35,39,31,25,100,69,37,30.39,30.33,30.23,10,10,9,10,7,,0.00,0,,314
2013-11-8,57,44,30,37,32,27,100,65,33,30.40,30.31,30.22,10,10,6,10,5,,0.00,0,,155
2013-11-9,62,50,37,39,35,32,81,59,37,30.26,30.22,30.15,10,10,10,17,8,24,0.00,0,,206
2013-11-10,59,48,37,41,33,25,93,60,27,30.39,30.32,30.24,10,10,6,13,7,16,0.00,0,,21
2013-11-11,66,49,32,43,32,27,93,53,24,30.31,30.24,30.17,10,10,6,20,5,29,0.00,4,,222
2013-11-12,46,36,26,41,25,18,100,68,42,30.67,30.56,30.28,10,9,3,21,15,30,0.01,4,,8
2013-11-13,44,32,21,23,19,16,86,61,31,30.71,30.58,30.42,10,10,10,7,5,,0.00,0,,163
2013-11-14,55,42,28,19,18,16,64,42,21,30.42,30.30,30.17,10,10,10,14,6,21,0.00,1,,191
2013-11-15,51,45,39,50,37,19,100,72,42,30.18,30.11,30.05,10,10,7,13,6,17,0.00,5,,172
2013-11-16,64,58,51,61,56,50,94,89,82,30.06,29.97,29.86,10,10,8,20,10,32,0.00,8,,177
2013-11-17,73,62,50,66,58,34,100,83,39,29.97,29.77,29.63,10,8,1,23,15,36,1.70,5,,218
2013-11-18,59,49,39,39,31,25,81,50,29,30.28,30.15,29.97,10,10,10,16,8,25,0.00,0,,336
2013-11-19,48,42,35,28,27,25,75,59,40,30.33,30.26,30.20,10,10,10,12,7,,0.00,0,,46
2013-11-20,59,46,32,36,31,27,87,60,36,30.22,30.17,30.11,10,10,9,15,7,20,0.00,0,,141
2013-11-21,64,56,48,55,47,36,100,77,56,30.24,30.19,30.16,10,9,3,13,7,21,0.17,3,,170
2013-11-22,57,49,41,57,48,36,100,95,81,30.41,30.30,30.18,10,6,1,16,8,24,0.35,8,,354
2013-11-23,42,32,23,36,23,10,87,64,27,30.63,30.50,30.39,10,10,10,18,13,29,0.00,5,,7
2013-11-24,32,24,17,16,12,9,80,58,38,30.70,30.60,30.46,10,10,10,15,10,22,0.00,1,,42
2013-11-25,39,34,28,32,22,14,100,70,41,30.44,30.31,30.17,10,9,1,10,6,20,0.05,7,,137
2013-11-26,35,34,32,34,30,19,100,87,60,30.17,30.06,29.96,10,8,1,24,7,30,0.12,8,,12
2013-11-27,32,24,15,18,9,5,86,54,34,30.37,30.26,30.09,10,10,10,20,12,26,0.00,1,,337
2013-11-28,41,28,15,21,15,9,93,57,36,30.48,30.40,30.33,10,10,10,13,6,23,0.00,0,,202
2013-11-29,50,36,21,28,24,19,93,68,37,30.58,30.51,30.44,10,10,5,10,2,,0.00,0,,127
2013-11-30,55,40,26,28,25,21,93,52,26,30.43,30.32,30.21,10,10,9,16,6,25,0.00,1,,185